createdAt,value
2023-04-18T00:00:18.368Z,43.00
2023-04-18T00:02:55.015Z,42.90
2023-04-18T00:05:30.106Z,43.00
2023-04-18T00:08:05.538Z,43.10
2023-04-18T00:10:40.584Z,42.90
2023-04-18T00:13:18.606Z,42.70
2023-04-18T00:15:54.193Z,42.80
2023-04-18T00:18:29.067Z,42.80
2023-04-18T00:21:04.504Z,43.00
2023-04-18T00:23:39.785Z,43.20
2023-04-18T00:26:14.726Z,43.40
2023-04-18T00:28:52.255Z,43.40
2023-04-18T00:31:27.157Z,43.70
2023-04-18T00:34:02.214Z,43.70
2023-04-18T00:36:37.140Z,43.70
2023-04-18T00:39:12.032Z,43.90
2023-04-18T00:41:46.929Z,43.80
2023-04-18T00:44:21.942Z,43.90
2023-04-18T00:46:56.862Z,43.90
2023-04-18T00:49:33.033Z,43.60
2023-04-18T00:52:08.146Z,43.80
2023-04-18T00:54:44.612Z,43.90
2023-04-18T00:57:19.701Z,43.90
2023-04-18T00:59:55.750Z,43.90
2023-04-18T01:02:31.211Z,44.00
2023-04-18T01:05:07.998Z,44.00
2023-04-18T01:07:43.359Z,43.80
2023-04-18T01:10:18.797Z,43.40
2023-04-18T01:13:17.215Z,43.20
2023-04-18T01:15:52.202Z,43.50
2023-04-18T01:18:31.468Z,43.80
2023-04-18T01:21:06.580Z,43.70
2023-04-18T01:23:41.571Z,43.70
2023-04-18T01:26:16.789Z,44.10
2023-04-18T01:28:51.630Z,44.20
2023-04-18T01:31:26.535Z,44.10
2023-04-18T01:34:01.577Z,44.00
2023-04-18T01:36:38.417Z,43.80
2023-04-18T01:39:14.030Z,43.80
2023-04-18T01:41:48.951Z,44.10
2023-04-18T01:44:24.947Z,44.10
2023-04-18T01:46:59.832Z,44.40
2023-04-18T01:49:34.782Z,44.20
2023-04-18T01:52:09.669Z,44.00
2023-04-18T01:54:44.575Z,44.50
2023-04-18T01:57:20.738Z,44.30
2023-04-18T01:59:57.640Z,44.20
2023-04-18T02:02:33.009Z,44.20
2023-04-18T02:05:08.930Z,43.20
2023-04-18T02:07:47.718Z,43.40
2023-04-18T02:10:22.767Z,43.30
2023-04-18T02:12:57.646Z,43.40
2023-04-18T02:15:33.820Z,43.70
2023-04-18T02:18:09.568Z,44.70
2023-04-18T02:20:45.171Z,44.90
2023-04-18T02:23:20.206Z,44.70
2023-04-18T02:25:55.805Z,44.70
2023-04-18T02:28:30.822Z,44.80
2023-04-18T02:31:06.353Z,45.10
2023-04-18T02:33:43.900Z,45.50
2023-04-18T02:36:18.787Z,45.70
2023-04-18T02:38:55.190Z,45.40
2023-04-18T02:41:30.148Z,45.20
2023-04-18T02:44:06.880Z,45.60
2023-04-18T02:46:44.357Z,45.60
2023-04-18T02:49:21.525Z,45.60
2023-04-18T02:51:57.981Z,45.70
2023-04-18T02:54:33.066Z,45.80
2023-04-18T02:57:16.040Z,45.70
2023-04-18T02:59:53.814Z,45.10
2023-04-18T03:02:47.478Z,45.20
2023-04-18T03:05:39.866Z,45.30
2023-04-18T03:08:16.170Z,45.70
2023-04-18T03:10:52.075Z,45.40
2023-04-18T03:13:30.613Z,44.80
2023-04-18T03:16:05.952Z,44.40
2023-04-18T03:18:42.039Z,44.70
2023-04-18T03:21:17.378Z,45.30
2023-04-18T03:23:53.150Z,44.80
2023-04-18T03:26:30.692Z,45.00
2023-04-18T03:29:06.506Z,45.30
2023-04-18T03:31:41.719Z,45.50
2023-04-18T03:34:16.646Z,45.30
2023-04-18T03:36:52.531Z,45.20
2023-04-18T03:39:27.384Z,45.40
2023-04-18T03:42:02.623Z,45.30
2023-04-18T03:44:38.002Z,45.00
2023-04-18T03:47:14.623Z,44.90
2023-04-18T03:49:54.203Z,44.90
2023-04-18T03:52:30.750Z,45.00
2023-04-18T03:55:06.561Z,45.10
2023-04-18T03:57:42.535Z,45.30
2023-04-18T04:00:22.341Z,45.00
2023-04-18T04:03:07.536Z,44.70
2023-04-18T04:05:42.622Z,44.40
2023-04-18T04:08:17.996Z,44.40
2023-04-18T04:10:54.874Z,44.50
2023-04-18T04:13:30.485Z,44.40
2023-04-18T04:16:06.912Z,44.50
2023-04-18T04:18:41.818Z,44.90
2023-04-18T04:21:17.631Z,45.10
2023-04-18T04:23:58.387Z,45.20
2023-04-18T04:26:43.101Z,44.70
2023-04-18T04:29:23.704Z,44.90
2023-04-18T04:31:59.642Z,45.00
2023-04-18T04:34:41.701Z,44.60
2023-04-18T04:37:21.427Z,44.90
2023-04-18T04:40:09.214Z,44.90
2023-04-18T04:43:15.355Z,44.50
2023-04-18T04:45:53.119Z,44.50
2023-04-18T04:48:31.447Z,44.60
2023-04-18T04:51:06.347Z,44.40
2023-04-18T04:53:41.259Z,44.60
2023-04-18T04:56:16.623Z,44.60
2023-04-18T04:58:52.982Z,44.60
2023-04-18T05:01:41.462Z,44.70
2023-04-18T05:04:17.231Z,44.70
2023-04-18T05:06:52.875Z,44.60
2023-04-18T05:09:27.820Z,44.70
2023-04-18T05:12:02.963Z,44.80
2023-04-18T05:14:39.036Z,44.60
2023-04-18T05:17:13.958Z,44.70
2023-04-18T05:19:48.914Z,44.40
2023-04-18T05:22:24.005Z,44.10
2023-04-18T05:24:59.011Z,43.80
2023-04-18T05:27:34.022Z,43.50
2023-04-18T05:30:09.705Z,43.40
2023-04-18T05:32:44.733Z,43.60
2023-04-18T05:35:19.753Z,43.90
2023-04-18T05:37:54.651Z,43.90
2023-04-18T05:40:30.224Z,43.80
2023-04-18T05:43:05.364Z,43.70
2023-04-18T05:45:40.316Z,43.40
2023-04-18T05:48:15.198Z,42.50
2023-04-18T05:50:50.275Z,41.90
2023-04-18T05:53:26.268Z,42.10
2023-04-18T05:56:01.380Z,41.80
2023-04-18T05:58:36.519Z,42.00
2023-04-18T06:01:11.989Z,42.00
2023-04-18T06:03:47.481Z,41.80
2023-04-18T06:06:22.639Z,41.70
2023-04-18T06:08:57.601Z,41.80
2023-04-18T06:11:33.601Z,41.90
2023-04-18T06:14:10.906Z,41.40
2023-04-18T06:16:45.894Z,41.40
2023-04-18T06:19:21.142Z,41.50
2023-04-18T06:21:56.107Z,41.60
2023-04-18T06:24:31.361Z,41.30
2023-04-18T06:29:43.313Z,41.10
2023-04-18T06:32:18.356Z,41.10
2023-04-18T06:34:53.403Z,41.00
2023-04-18T06:37:29.252Z,41.00
2023-04-18T06:40:04.688Z,41.00
2023-04-18T06:42:39.769Z,41.10
2023-04-18T06:45:14.669Z,41.00
2023-04-18T06:47:51.347Z,40.90
2023-04-18T06:50:27.013Z,40.80
2023-04-18T06:53:02.236Z,40.70
2023-04-18T06:55:37.266Z,40.70
2023-04-18T06:58:15.992Z,40.70
2023-04-18T07:00:52.035Z,40.70
2023-04-18T07:03:27.250Z,40.20
2023-04-18T07:06:02.993Z,40.20
2023-04-18T07:08:38.262Z,39.90
2023-04-18T07:11:18.440Z,39.70
2023-04-18T07:13:53.666Z,39.50
2023-04-18T07:16:28.940Z,39.60
2023-04-18T07:19:05.594Z,39.40
2023-04-18T07:21:42.890Z,39.50
2023-04-18T07:24:17.830Z,39.50
2023-04-18T07:26:54.931Z,39.60
2023-04-18T07:29:30.146Z,39.70
2023-04-18T07:32:06.894Z,39.40
2023-04-18T07:34:43.750Z,39.60
2023-04-18T07:37:19.079Z,39.70
2023-04-18T07:39:53.936Z,39.80
2023-04-18T07:42:28.824Z,39.80
2023-04-18T07:45:04.308Z,39.00
2023-04-18T07:47:39.250Z,39.00
2023-04-18T07:50:14.318Z,39.10
2023-04-18T07:52:49.302Z,38.90
2023-04-18T07:55:24.378Z,38.90
2023-04-18T07:58:00.465Z,38.60
2023-04-18T08:00:39.951Z,38.50
2023-04-18T08:03:16.225Z,38.80
2023-04-18T08:05:52.417Z,38.70
2023-04-18T08:08:28.547Z,38.60
2023-04-18T08:11:03.519Z,38.10
2023-04-18T08:13:51.358Z,38.20
2023-04-18T08:16:34.694Z,37.30
2023-04-18T08:19:12.383Z,37.80
2023-04-18T08:22:21.094Z,37.40
2023-04-18T08:25:08.798Z,37.10
2023-04-18T08:27:44.221Z,37.20
2023-04-18T08:30:20.254Z,36.70
2023-04-18T08:32:56.252Z,36.80
2023-04-18T08:35:32.308Z,36.60
2023-04-18T08:38:07.560Z,36.50
2023-04-18T08:40:44.882Z,36.40
2023-04-18T08:43:20.826Z,36.40
2023-04-18T08:45:59.774Z,37.00
2023-04-18T08:48:34.668Z,36.80
2023-04-18T08:51:09.833Z,36.60
2023-04-18T08:53:45.146Z,36.30
2023-04-18T08:56:25.939Z,36.30
2023-04-18T08:59:01.126Z,36.30
2023-04-18T09:01:57.143Z,35.70
2023-04-18T09:04:34.338Z,35.60
2023-04-18T09:07:12.617Z,35.40
2023-04-18T09:09:53.286Z,34.80
2023-04-18T09:12:29.565Z,34.30
2023-04-18T09:15:16.487Z,34.40
2023-04-18T09:17:53.784Z,34.20
2023-04-18T09:20:38.512Z,34.10
2023-04-18T09:23:27.496Z,34.10
2023-04-18T09:26:02.924Z,33.90
2023-04-18T09:28:38.353Z,34.10
2023-04-18T09:31:14.517Z,34.30
2023-04-18T09:33:56.820Z,34.40
2023-04-18T09:36:32.283Z,34.50
2023-04-18T09:39:07.220Z,34.70
2023-04-18T09:41:58.568Z,35.00
2023-04-18T09:44:33.531Z,34.70
2023-04-18T09:47:09.393Z,34.90
2023-04-18T09:49:44.467Z,34.40
2023-04-18T09:52:21.223Z,34.30
2023-04-18T09:54:59.706Z,34.40
2023-04-18T09:57:36.451Z,34.20
2023-04-18T10:00:26.564Z,33.90
2023-04-18T10:03:10.670Z,34.00
2023-04-18T10:05:47.555Z,34.10
2023-04-18T10:08:22.980Z,33.60
2023-04-18T10:10:59.158Z,33.50
2023-04-18T10:13:37.212Z,33.70
2023-04-18T10:16:12.755Z,33.50
2023-04-18T10:18:51.076Z,33.40
2023-04-18T10:21:28.957Z,33.00
2023-04-18T10:24:04.075Z,32.90
2023-04-18T10:26:47.296Z,32.50
2023-04-18T10:29:53.097Z,32.70
2023-04-18T10:32:28.426Z,32.70
2023-04-18T10:35:05.602Z,32.70
2023-04-18T10:37:59.497Z,32.70
2023-04-18T10:40:35.204Z,32.40
2023-04-18T10:43:10.131Z,32.00
2023-04-18T10:45:45.136Z,32.20
2023-04-18T10:48:29.971Z,32.10
2023-04-18T10:51:15.069Z,32.00
2023-04-18T10:53:57.740Z,32.00
2023-04-18T10:56:33.274Z,32.10
2023-04-18T10:59:11.962Z,31.60
2023-04-18T11:01:49.316Z,31.60
2023-04-18T11:04:25.706Z,31.80
2023-04-18T11:07:01.504Z,32.00
2023-04-18T11:09:38.501Z,31.90
2023-04-18T11:12:13.391Z,32.20
2023-04-18T11:14:52.002Z,32.30
2023-04-18T11:17:32.801Z,32.30
2023-04-18T11:20:14.952Z,32.20
2023-04-18T11:22:53.652Z,32.30
2023-04-18T11:25:40.581Z,32.40
2023-04-18T11:28:21.140Z,32.60
2023-04-18T11:30:59.877Z,32.50
2023-04-18T11:33:34.849Z,32.50
2023-04-18T11:36:09.922Z,32.60
2023-04-18T11:38:44.864Z,32.70
2023-04-18T11:41:19.844Z,32.70
2023-04-18T11:43:56.140Z,32.80
2023-04-18T11:46:40.136Z,32.80
2023-04-18T11:49:30.128Z,33.10
2023-04-18T11:52:13.406Z,33.20
2023-04-18T11:54:48.267Z,33.40
2023-04-18T11:57:29.441Z,33.60
2023-04-18T12:00:07.336Z,33.90
2023-04-18T12:02:48.376Z,33.90
2023-04-18T12:05:29.163Z,33.90
2023-04-18T12:08:13.328Z,33.70
2023-04-18T12:10:51.390Z,33.40
2023-04-18T12:13:31.930Z,33.50
2023-04-18T12:16:07.741Z,33.40
2023-04-18T12:18:42.772Z,33.40
2023-04-18T12:21:17.718Z,33.40
2023-04-18T12:23:52.576Z,33.30
2023-04-18T12:26:27.535Z,33.20
2023-04-18T12:29:03.604Z,32.70
2023-04-18T12:31:38.549Z,32.60
2023-04-18T12:34:13.905Z,32.20
2023-04-18T12:36:48.877Z,32.50
2023-04-18T12:39:23.846Z,32.10
2023-04-18T12:41:59.786Z,32.30
2023-04-18T12:44:35.114Z,32.10
2023-04-18T12:47:10.692Z,31.60
2023-04-18T12:49:45.645Z,31.30
2023-04-18T12:52:20.666Z,31.40
2023-04-18T12:54:56.451Z,31.50
2023-04-18T12:57:31.946Z,31.30
2023-04-18T13:00:11.172Z,31.00
2023-04-18T13:02:46.321Z,31.10
2023-04-18T13:05:28.077Z,30.80
2023-04-18T13:08:16.352Z,30.60
2023-04-18T13:10:52.341Z,30.40
2023-04-18T13:13:27.232Z,30.50
2023-04-18T13:16:02.221Z,30.80
2023-04-18T13:18:37.208Z,30.40
2023-04-18T13:21:12.172Z,30.30
2023-04-18T13:23:47.073Z,30.30
2023-04-18T13:26:22.028Z,30.50
2023-04-18T13:28:56.911Z,30.00
2023-04-18T13:31:31.934Z,29.90
2023-04-18T13:34:06.914Z,29.60
2023-04-18T13:36:41.824Z,29.80
2023-04-18T13:39:17.218Z,29.60
2023-04-18T13:41:54.360Z,29.70
2023-04-18T13:44:30.883Z,29.80
2023-04-18T13:47:10.734Z,30.00
2023-04-18T13:49:45.753Z,30.10
2023-04-18T13:52:20.682Z,30.80
2023-04-18T13:54:55.624Z,30.10
2023-04-18T13:57:32.179Z,30.20
2023-04-18T14:00:09.141Z,30.40
2023-04-18T14:02:50.286Z,30.00
2023-04-18T14:05:25.750Z,30.00
2023-04-18T14:08:03.884Z,30.40
2023-04-18T14:10:38.908Z,30.10
2023-04-18T14:13:13.905Z,30.00
2023-04-18T14:15:48.978Z,29.90
2023-04-18T14:18:24.635Z,30.00
2023-04-18T14:20:59.744Z,30.00
2023-04-18T14:23:35.413Z,30.00
2023-04-18T14:26:10.865Z,30.20
2023-04-18T14:28:46.080Z,30.00
2023-04-18T14:31:21.686Z,29.80
2023-04-18T14:33:56.685Z,29.60
2023-04-18T14:36:31.928Z,29.60
2023-04-18T14:39:06.881Z,29.70
2023-04-18T14:41:41.780Z,30.00
2023-04-18T14:44:17.244Z,29.80
2023-04-18T14:46:52.143Z,29.90
2023-04-18T14:49:27.055Z,29.80
2023-04-18T14:52:01.944Z,29.90
2023-04-18T14:54:36.836Z,30.00
2023-04-18T14:57:12.873Z,29.80
2023-04-18T14:59:47.768Z,29.70
2023-04-18T15:02:22.801Z,29.80
2023-04-18T15:04:57.782Z,29.90
2023-04-18T15:07:33.273Z,30.00
2023-04-18T15:10:08.880Z,30.00
2023-04-18T15:12:43.837Z,30.00
2023-04-18T15:15:19.621Z,29.90
2023-04-18T15:17:54.554Z,30.00
2023-04-18T15:20:29.674Z,30.00
2023-04-18T15:23:04.533Z,30.10
2023-04-18T15:25:40.437Z,30.00
2023-04-18T15:28:16.221Z,30.30
2023-04-18T15:30:51.225Z,30.60
2023-04-18T15:33:26.233Z,31.00
2023-04-18T15:36:01.112Z,31.00
2023-04-18T15:38:36.084Z,30.70
2023-04-18T15:41:10.948Z,30.80
2023-04-18T15:43:45.944Z,30.80
2023-04-18T15:46:20.919Z,30.90
2023-04-18T15:48:55.991Z,30.90
2023-04-18T15:51:30.839Z,31.10
2023-04-18T15:54:06.501Z,31.40
2023-04-18T15:56:43.794Z,31.60
2023-04-18T15:59:18.679Z,31.70
2023-04-18T16:01:53.682Z,31.30
2023-04-18T16:04:29.067Z,31.60
2023-04-18T16:07:04.110Z,31.90
2023-04-18T16:09:39.133Z,31.90
2023-04-18T16:12:14.240Z,31.90
2023-04-18T16:14:49.101Z,32.00
2023-04-18T16:17:23.990Z,32.10
2023-04-18T16:19:58.907Z,32.30
2023-04-18T16:22:33.811Z,31.90
2023-04-18T16:25:09.382Z,32.20
2023-04-18T16:27:44.311Z,32.20
2023-04-18T16:30:19.208Z,32.40
2023-04-18T16:32:54.400Z,32.40
2023-04-18T16:35:29.449Z,32.60
2023-04-18T16:38:04.363Z,32.40
2023-04-18T16:40:39.397Z,32.50
2023-04-18T16:43:14.983Z,32.50
2023-04-18T16:45:49.960Z,32.50
2023-04-18T16:48:25.697Z,32.40
2023-04-18T16:51:00.607Z,32.60
2023-04-18T16:53:36.055Z,32.80
2023-04-18T16:56:10.927Z,32.80
2023-04-18T16:58:45.958Z,32.60
2023-04-18T17:01:20.973Z,32.70
2023-04-18T17:03:56.307Z,32.90
2023-04-18T17:06:32.001Z,32.90
2023-04-18T17:09:06.957Z,32.90
2023-04-18T17:11:42.084Z,33.10
2023-04-18T17:14:18.191Z,33.10
2023-04-18T17:16:53.858Z,33.40
2023-04-18T17:19:29.191Z,33.50
2023-04-18T17:22:04.073Z,33.60
2023-04-18T17:24:39.045Z,33.60
2023-04-18T17:27:13.975Z,33.40
2023-04-18T17:29:48.917Z,33.30
2023-04-18T17:32:23.922Z,33.40
2023-04-18T17:34:59.090Z,33.20
2023-04-18T17:37:34.026Z,33.20
2023-04-18T17:40:11.595Z,33.30
2023-04-18T17:42:46.647Z,33.50
2023-04-18T17:45:21.646Z,33.30
2023-04-18T17:47:58.199Z,33.90
2023-04-18T17:50:36.826Z,33.50
2023-04-18T17:53:12.302Z,33.40
2023-04-18T17:55:50.365Z,33.60
2023-04-18T17:58:26.516Z,33.80
2023-04-18T18:01:01.526Z,33.90
2023-04-18T18:03:36.773Z,34.00
2023-04-18T18:06:13.196Z,34.20
2023-04-18T18:08:48.247Z,34.20
2023-04-18T18:11:23.734Z,34.40
2023-04-18T18:13:59.193Z,34.50
2023-04-18T18:16:34.226Z,34.40
2023-04-18T18:19:09.221Z,34.80
2023-04-18T18:21:44.077Z,34.70
2023-04-18T18:24:18.986Z,34.70
2023-04-18T18:26:53.994Z,34.90
2023-04-18T18:29:28.974Z,35.00
2023-04-18T18:32:03.900Z,35.10
2023-04-18T18:34:39.593Z,35.20
2023-04-18T18:37:15.580Z,35.20
2023-04-18T18:39:50.837Z,35.30
2023-04-18T18:42:26.063Z,35.40
2023-04-18T18:45:01.602Z,35.50
2023-04-18T18:47:39.593Z,35.70
2023-04-18T18:50:15.013Z,35.90
2023-04-18T18:52:50.735Z,35.90
2023-04-18T18:55:25.595Z,36.00
2023-04-18T18:58:00.547Z,35.90
2023-04-18T19:00:35.809Z,36.00
2023-04-18T19:03:10.892Z,36.00
2023-04-18T19:05:47.316Z,36.10
2023-04-18T19:08:22.425Z,36.20
2023-04-18T19:10:57.388Z,36.40
2023-04-18T19:13:32.296Z,36.30
2023-04-18T19:16:07.234Z,36.40
2023-04-18T19:18:46.929Z,36.20
2023-04-18T19:21:22.906Z,36.50
2023-04-18T19:23:57.852Z,36.60
2023-04-18T19:26:32.761Z,36.70
2023-04-18T19:29:09.361Z,36.80
2023-04-18T19:31:44.295Z,36.80
2023-04-18T19:34:19.982Z,36.60
2023-04-18T19:36:54.810Z,36.70
2023-04-18T19:39:30.391Z,36.80
2023-04-18T19:42:05.563Z,37.00
2023-04-18T19:44:40.475Z,37.00
2023-04-18T19:47:15.776Z,37.10
2023-04-18T19:49:50.622Z,37.10
2023-04-18T19:52:25.527Z,37.20
2023-04-18T19:55:00.433Z,37.20
2023-04-18T19:57:39.556Z,37.20
2023-04-18T20:00:15.864Z,37.20
2023-04-18T20:02:51.007Z,37.30
2023-04-18T20:05:26.012Z,37.40
2023-04-18T20:08:01.035Z,37.40
2023-04-18T20:10:37.390Z,37.40
2023-04-18T20:13:12.399Z,37.40
2023-04-18T20:15:49.311Z,37.50
2023-04-18T20:18:24.160Z,37.50
2023-04-18T20:20:58.989Z,37.60
2023-04-18T20:23:37.434Z,37.40
2023-04-18T20:26:12.316Z,38.00
2023-04-18T20:28:47.213Z,37.70
2023-04-18T20:31:22.098Z,37.60
2023-04-18T20:33:56.968Z,37.60
2023-04-18T20:36:32.008Z,37.80
2023-04-18T20:39:12.772Z,37.80
2023-04-18T20:41:51.288Z,37.80
2023-04-18T20:44:26.355Z,38.00
2023-04-18T20:47:02.432Z,38.00
2023-04-18T20:49:39.434Z,38.00
2023-04-18T20:52:14.436Z,38.00
2023-04-18T20:54:49.643Z,38.10
2023-04-18T20:57:24.486Z,38.10
2023-04-18T20:59:59.622Z,38.00
2023-04-18T21:02:34.549Z,38.10
2023-04-18T21:05:09.577Z,38.10
2023-04-18T21:07:45.857Z,38.20
2023-04-18T21:10:21.447Z,38.30
2023-04-18T21:12:56.286Z,38.40
2023-04-18T21:15:31.171Z,38.40
2023-04-18T21:18:06.101Z,38.50
2023-04-18T21:20:40.957Z,38.50
2023-04-18T21:23:16.002Z,38.60
2023-04-18T21:25:50.937Z,38.50
2023-04-18T21:28:25.888Z,38.50
2023-04-18T21:31:00.882Z,38.60
2023-04-18T21:33:36.085Z,38.80
2023-04-18T21:36:11.098Z,39.00
2023-04-18T21:38:46.100Z,39.10
2023-04-18T21:41:21.837Z,39.00
2023-04-18T21:43:56.739Z,38.90
2023-04-18T21:46:31.610Z,39.00
2023-04-18T21:49:07.250Z,38.90
2023-04-18T21:51:42.131Z,38.90
2023-04-18T21:54:17.090Z,38.90
2023-04-18T21:56:52.016Z,38.90
2023-04-18T21:59:26.906Z,38.90
2023-04-18T22:02:01.937Z,39.00
2023-04-18T22:04:38.025Z,39.00
2023-04-18T22:07:14.419Z,39.00
2023-04-18T22:09:50.216Z,39.00
2023-04-18T22:12:26.325Z,39.20
2023-04-18T22:15:01.369Z,39.20
2023-04-18T22:17:37.867Z,39.00
2023-04-18T22:20:12.946Z,39.00
2023-04-18T22:22:47.928Z,39.00
2023-04-18T22:25:22.808Z,39.10
2023-04-18T22:27:57.641Z,39.10
2023-04-18T22:30:32.501Z,39.10
2023-04-18T22:33:07.400Z,39.20
2023-04-18T22:35:42.384Z,39.20
2023-04-18T22:38:17.319Z,39.40
2023-04-18T22:40:52.233Z,39.40
2023-04-18T22:43:27.094Z,39.50
2023-04-18T22:46:03.455Z,39.50
2023-04-18T22:48:38.413Z,39.60
2023-04-18T22:51:14.763Z,39.70
2023-04-18T22:53:49.882Z,39.50
2023-04-18T22:56:24.832Z,39.50
2023-04-18T22:58:59.684Z,39.70
2023-04-18T23:01:34.579Z,39.90
2023-04-18T23:04:09.558Z,39.90
2023-04-18T23:06:44.681Z,40.00
2023-04-18T23:09:19.577Z,40.10
2023-04-18T23:11:54.447Z,40.20
2023-04-18T23:14:30.043Z,40.10
2023-04-18T23:17:04.921Z,40.10
2023-04-18T23:19:39.874Z,40.20
2023-04-18T23:22:14.800Z,40.50
2023-04-18T23:24:49.844Z,40.30
2023-04-18T23:27:24.738Z,40.40
2023-04-18T23:29:59.599Z,40.40
2023-04-18T23:32:34.488Z,40.50
2023-04-18T23:35:11.602Z,40.60
2023-04-18T23:37:46.417Z,40.60
2023-04-18T23:40:21.620Z,40.70
2023-04-18T23:42:57.055Z,40.50
2023-04-18T23:45:31.928Z,40.60
2023-04-18T23:48:06.855Z,40.80
2023-04-18T23:50:50.009Z,40.70
2023-04-18T23:53:25.099Z,40.90
2023-04-18T23:55:59.997Z,41.00
2023-04-18T23:58:34.900Z,41.10
